Time;durP1;ratioP1;P1;durP2;ratioP2;P2;SDS_P1;SDS_P2;PMS_P1;PMS_P2;Temp;Humidity;BMP_temperature;BMP_pressure;BME280_temperature;BME280_humidity;BME280_pressure;Samples;Min_cycle;Max_cycle;Signal;HPM_P1;HPM_P2
2023/03/08 00:00:12;;;;;;;;;;;2.30;99.90;;;;;;5012294;28;19924;-68
2023/03/08 00:02:43;;;;;;;;;;;2.30;99.90;;;;;;4968163;28;20377;-68
2023/03/08 00:05:10;;;;;;;;;;;2.30;99.90;;;;;;4975733;28;19946;-68
2023/03/08 00:07:37;;;;;;;;;;;2.30;99.90;;;;;;4961095;28;20393;-67
2023/03/08 00:10:04;;;;;;;;;;;2.30;99.90;;;;;;4969169;28;20023;-67
2023/03/08 00:12:31;;;;;;;;;;;2.30;99.90;;;;;;4970608;28;19980;-68
2023/03/08 00:14:57;;;;;;;;;;;2.30;99.90;;;;;;5048055;28;19924;-67
2023/03/08 00:17:25;;;;;;;;;;;2.30;99.90;;;;;;4972147;28;19927;-67
2023/03/08 00:19:53;;;;;;;;;;;2.30;99.90;;;;;;4966688;28;19927;-68
2023/03/08 00:22:19;;;;;;;;;;;2.30;99.90;;;;;;4955251;28;19937;-68
2023/03/08 00:24:46;;;;;;;;;;;2.40;99.90;;;;;;4962102;28;20025;-68
2023/03/08 00:27:13;;;;;;;;;;;2.40;99.90;;;;;;4955852;28;20409;-68
2023/03/08 00:29:40;;;;;;;;;;;2.30;99.90;;;;;;4955563;28;20021;-67
2023/03/08 00:32:07;;;;;;;;;;;2.40;99.90;;;;;;5000862;28;20017;-68
2023/03/08 00:34:34;;;;;;;;;;;2.40;99.90;;;;;;5018955;28;20013;-68
2023/03/08 00:37:02;;;;;;;;;;;2.40;99.90;;;;;;4957867;28;19927;-68
2023/03/08 00:39:28;;;;;;;;;;;2.40;99.90;;;;;;4971376;28;19934;-67
2023/03/08 00:41:55;;;;;;;;;;;2.40;99.90;;;;;;4990151;28;19927;-67
2023/03/08 00:44:22;;;;;;;;;;;2.40;99.90;;;;;;5024565;28;20348;-68
2023/03/08 00:46:48;;;;;;;;;;;2.40;99.90;;;;;;4987975;28;20017;-68
2023/03/08 00:49:15;;;;;;;;;;;2.40;99.90;;;;;;5006578;28;20021;-68
2023/03/08 00:51:42;;;;;;;;;;;2.40;99.90;;;;;;4960461;28;20017;-67
2023/03/08 00:54:10;;;;;;;;;;;2.40;99.90;;;;;;4960499;28;20335;-67
2023/03/08 00:56:37;;;;;;;;;;;2.40;99.90;;;;;;4958871;28;19987;-68
2023/03/08 00:59:04;;;;;;;;;;;2.40;99.90;;;;;;4996535;28;20390;-67
2023/03/08 01:01:31;;;;;;;;;;;2.40;99.90;;;;;;4971356;28;19933;-68
2023/03/08 01:03:58;;;;;;;;;;;2.50;99.90;;;;;;4953404;28;19930;-68
2023/03/08 01:06:24;;;;;;;;;;;2.40;99.90;;;;;;4961679;28;19937;-67
2023/03/08 01:08:51;;;;;;;;;;;2.40;99.90;;;;;;4997817;28;20389;-68
2023/03/08 01:11:21;;;;;;;;;;;2.40;99.90;;;;;;4958795;28;20010;-68
2023/03/08 01:13:47;;;;;;;;;;;2.40;99.90;;;;;;4952271;28;19927;-68
2023/03/08 01:16:15;;;;;;;;;;;2.30;99.90;;;;;;4964297;28;19962;-68
2023/03/08 01:18:42;;;;;;;;;;;2.30;99.90;;;;;;4976949;28;19927;-68
2023/03/08 01:21:10;;;;;;;;;;;2.30;99.90;;;;;;4954503;28;20041;-68
2023/03/08 01:23:37;;;;;;;;;;;2.30;99.90;;;;;;4969297;28;20017;-67
2023/03/08 01:26:04;;;;;;;;;;;2.20;99.90;;;;;;4957440;28;19927;-68
2023/03/08 01:28:33;;;;;;;;;;;2.20;99.90;;;;;;5033450;28;20015;-68
2023/03/08 01:31:06;;;;;;;;;;;2.20;99.90;;;;;;5028356;28;19992;-68
2023/03/08 01:33:33;;;;;;;;;;;2.20;99.90;;;;;;4969568;28;20020;-68
2023/03/08 01:36:02;;;;;;;;;;;2.20;99.90;;;;;;4983886;28;19935;-68
2023/03/08 01:38:29;;;;;;;;;;;2.20;99.90;;;;;;5027883;28;20418;-68
2023/03/08 01:40:56;;;;;;;;;;;2.10;99.90;;;;;;4961286;28;19962;-68
2023/03/08 01:43:24;;;;;;;;;;;2.20;99.90;;;;;;5016408;28;20446;-68
2023/03/08 01:46:14;;;;;;;;;;;2.10;99.90;;;;;;4969277;28;20370;-67
2023/03/08 01:48:43;;;;;;;;;;;2.10;99.90;;;;;;5009714;28;19930;-67
2023/03/08 01:51:12;;;;;;;;;;;2.10;99.90;;;;;;4951804;28;19930;-67
2023/03/08 01:53:40;;;;;;;;;;;2.10;99.90;;;;;;4955288;28;19934;-67
2023/03/08 01:56:08;;;;;;;;;;;2.10;99.90;;;;;;4989114;28;19965;-67
2023/03/08 01:58:35;;;;;;;;;;;2.10;99.90;;;;;;4996118;28;19924;-67
2023/03/08 02:01:02;;;;;;;;;;;2.10;99.90;;;;;;5010587;28;19926;-68
2023/03/08 02:03:30;;;;;;;;;;;2.10;99.90;;;;;;5011078;28;19970;-68
2023/03/08 02:05:57;;;;;;;;;;;2.10;99.90;;;;;;4975402;28;19999;-68
2023/03/08 02:08:24;;;;;;;;;;;2.10;99.90;;;;;;4996494;28;20027;-68
2023/03/08 02:10:51;;;;;;;;;;;2.10;99.90;;;;;;4968617;28;19955;-68
2023/03/08 02:13:19;;;;;;;;;;;2.10;99.90;;;;;;5011695;28;19925;-68
2023/03/08 02:15:46;;;;;;;;;;;2.10;99.90;;;;;;5022483;28;20015;-68
2023/03/08 02:18:13;;;;;;;;;;;2.10;99.90;;;;;;5017871;28;20296;-68
2023/03/08 02:20:41;;;;;;;;;;;2.10;99.90;;;;;;4993537;28;19938;-68
2023/03/08 02:23:11;;;;;;;;;;;2.10;99.90;;;;;;5006760;28;19926;-68
2023/03/08 02:25:38;;;;;;;;;;;2.10;99.90;;;;;;5018595;28;19928;-68
2023/03/08 02:28:05;;;;;;;;;;;2.10;99.90;;;;;;5017851;28;20011;-68
2023/03/08 02:30:33;;;;;;;;;;;2.10;99.90;;;;;;4992656;28;19927;-68
2023/03/08 02:33:00;;;;;;;;;;;2.10;99.90;;;;;;4974944;28;20374;-68
2023/03/08 02:35:27;;;;;;;;;;;2.10;99.90;;;;;;5041459;28;19925;-68
2023/03/08 02:37:54;;;;;;;;;;;2.10;99.90;;;;;;5042404;28;20027;-68
2023/03/08 02:40:22;;;;;;;;;;;2.20;99.90;;;;;;4988157;28;20021;-68
2023/03/08 02:42:49;;;;;;;;;;;2.30;99.90;;;;;;5032294;28;19942;-68
2023/03/08 02:45:15;;;;;;;;;;;2.30;99.90;;;;;;5058120;28;19954;-68
2023/03/08 02:47:45;;;;;;;;;;;2.30;99.90;;;;;;5008223;28;19934;-67
2023/03/08 02:50:12;;;;;;;;;;;2.30;99.90;;;;;;5026089;28;19925;-68
2023/03/08 02:52:38;;;;;;;;;;;2.10;99.90;;;;;;5007911;28;19971;-67
2023/03/08 02:55:06;;;;;;;;;;;2.10;99.90;;;;;;5049109;28;20027;-67
2023/03/08 02:57:34;;;;;;;;;;;2.00;99.90;;;;;;4989503;28;19926;-68
2023/03/08 03:00:01;;;;;;;;;;;2.00;99.90;;;;;;5030067;28;19960;-67
2023/03/08 03:02:28;;;;;;;;;;;1.90;99.90;;;;;;5000614;28;19924;-68
2023/03/08 03:04:54;;;;;;;;;;;1.90;99.90;;;;;;5001924;28;19930;-68
2023/03/08 03:07:21;;;;;;;;;;;1.80;99.90;;;;;;4975441;28;20016;-68
2023/03/08 03:09:48;;;;;;;;;;;1.80;99.90;;;;;;5018673;28;20017;-68
2023/03/08 03:12:15;;;;;;;;;;;1.80;99.90;;;;;;5007444;28;20327;-68
2023/03/08 03:14:43;;;;;;;;;;;1.70;99.90;;;;;;5010369;28;20025;-68
2023/03/08 03:17:10;;;;;;;;;;;1.70;99.90;;;;;;5027369;28;20488;-68
2023/03/08 03:19:37;;;;;;;;;;;1.70;99.90;;;;;;4964565;28;20451;-68
2023/03/08 03:22:04;;;;;;;;;;;1.80;99.90;;;;;;5029008;28;20019;-68
2023/03/08 03:24:31;;;;;;;;;;;1.70;99.90;;;;;;5003561;28;19928;-67
2023/03/08 03:27:00;;;;;;;;;;;1.70;99.90;;;;;;5012539;28;19937;-68
2023/03/08 03:29:27;;;;;;;;;;;1.70;99.90;;;;;;4978768;28;19926;-68
2023/03/08 03:31:55;;;;;;;;;;;1.70;99.90;;;;;;4987658;28;20448;-68
2023/03/08 03:34:22;;;;;;;;;;;1.60;99.90;;;;;;5045045;28;20393;-67
2023/03/08 03:36:49;;;;;;;;;;;1.60;99.90;;;;;;4982716;28;19927;-71
2023/03/08 03:39:15;;;;;;;;;;;1.60;99.90;;;;;;4959815;28;19966;-68
2023/03/08 03:41:42;;;;;;;;;;;1.50;99.90;;;;;;4972332;28;20029;-67
2023/03/08 03:44:09;;;;;;;;;;;1.50;99.90;;;;;;5031679;28;19965;-68
2023/03/08 03:46:35;;;;;;;;;;;1.40;99.90;;;;;;4961241;28;19927;-67
2023/03/08 03:49:03;;;;;;;;;;;1.30;99.90;;;;;;5014200;28;19965;-68
2023/03/08 03:51:30;;;;;;;;;;;1.30;99.90;;;;;;5015547;28;19952;-69
2023/03/08 03:53:57;;;;;;;;;;;1.30;99.90;;;;;;5013083;28;19966;-68
2023/03/08 03:56:25;;;;;;;;;;;1.20;99.90;;;;;;4969846;28;20017;-68
2023/03/08 03:58:52;;;;;;;;;;;1.20;99.90;;;;;;4968981;28;19933;-68
2023/03/08 04:01:20;;;;;;;;;;;1.10;99.90;;;;;;4971029;28;19930;-69
2023/03/08 04:03:46;;;;;;;;;;;1.00;99.90;;;;;;5014474;28;19934;-68
2023/03/08 04:06:15;;;;;;;;;;;1.00;99.90;;;;;;5030602;28;20401;-68
2023/03/08 04:08:42;;;;;;;;;;;1.00;99.90;;;;;;4987396;28;19933;-68
2023/03/08 04:11:09;;;;;;;;;;;1.00;99.90;;;;;;4953727;28;20400;-69
2023/03/08 04:13:36;;;;;;;;;;;0.90;99.90;;;;;;4975583;28;19933;-68
2023/03/08 04:16:08;;;;;;;;;;;0.80;99.90;;;;;;4959790;28;19927;-68
2023/03/08 04:18:35;;;;;;;;;;;0.80;99.90;;;;;;4986796;28;20426;-68
2023/03/08 04:21:01;;;;;;;;;;;0.80;99.90;;;;;;5001899;28;20354;-67
2023/03/08 04:23:29;;;;;;;;;;;0.80;99.90;;;;;;5012717;28;20371;-68
2023/03/08 04:25:56;;;;;;;;;;;0.80;99.90;;;;;;4956642;28;19927;-67
2023/03/08 04:28:23;;;;;;;;;;;0.70;99.90;;;;;;4961115;28;19932;-68
2023/03/08 04:30:49;;;;;;;;;;;0.70;99.90;;;;;;4969987;28;19930;-67
2023/03/08 04:33:16;;;;;;;;;;;0.70;99.90;;;;;;4982758;28;19927;-67
2023/03/08 04:35:43;;;;;;;;;;;0.70;99.90;;;;;;5002549;28;19937;-67
2023/03/08 04:38:11;;;;;;;;;;;0.70;99.90;;;;;;4969997;28;20017;-67
2023/03/08 04:43:19;;;;;;;;;;;0.60;99.90;;;;;;4975352;28;19926;-68
2023/03/08 04:45:46;;;;;;;;;;;0.50;99.90;;;;;;4977626;28;19930;-68
2023/03/08 04:48:13;;;;;;;;;;;0.50;99.90;;;;;;4986413;28;20295;-67
2023/03/08 04:50:40;;;;;;;;;;;0.50;99.90;;;;;;5000372;28;19926;-68
2023/03/08 04:53:07;;;;;;;;;;;0.50;99.90;;;;;;4965411;28;20021;-69
2023/03/08 04:55:33;;;;;;;;;;;0.40;99.90;;;;;;4960693;28;19927;-68
2023/03/08 04:58:01;;;;;;;;;;;0.40;99.90;;;;;;4966984;28;19926;-68
2023/03/08 05:00:28;;;;;;;;;;;0.40;99.90;;;;;;4961243;28;19932;-70
2023/03/08 05:02:55;;;;;;;;;;;0.40;99.90;;;;;;5039119;28;19989;-70
2023/03/08 05:05:21;;;;;;;;;;;0.40;99.90;;;;;;5029446;28;19930;-71
2023/03/08 05:07:48;;;;;;;;;;;0.40;99.90;;;;;;4962749;28;19926;-70
2023/03/08 05:10:15;;;;;;;;;;;0.40;99.90;;;;;;4963580;28;19940;-71
2023/03/08 05:12:42;;;;;;;;;;;0.40;99.90;;;;;;5012075;28;20535;-71
2023/03/08 05:15:10;;;;;;;;;;;0.40;99.90;;;;;;4954679;28;20332;-71
2023/03/08 05:17:37;;;;;;;;;;;0.40;99.90;;;;;;4970829;28;19926;-70
2023/03/08 05:20:04;;;;;;;;;;;0.40;99.90;;;;;;4953578;28;20009;-70
2023/03/08 05:22:31;;;;;;;;;;;0.40;99.90;;;;;;4977520;28;19937;-70
2023/03/08 05:24:57;;;;;;;;;;;0.30;99.90;;;;;;4979297;28;20017;-70
2023/03/08 05:27:24;;;;;;;;;;;0.30;99.90;;;;;;4967301;28;20075;-70
2023/03/08 05:29:51;;;;;;;;;;;0.30;99.90;;;;;;4966823;28;20009;-71
2023/03/08 05:32:19;;;;;;;;;;;0.30;99.90;;;;;;4999790;28;20009;-71
2023/03/08 05:34:46;;;;;;;;;;;0.30;99.90;;;;;;5058812;28;20303;-71
2023/03/08 05:37:12;;;;;;;;;;;0.30;99.90;;;;;;4999458;28;20490;-70
2023/03/08 05:39:39;;;;;;;;;;;0.30;99.90;;;;;;5059563;28;19928;-70
2023/03/08 05:42:06;;;;;;;;;;;0.30;99.90;;;;;;5004574;28;19930;-70
2023/03/08 05:44:33;;;;;;;;;;;0.30;99.90;;;;;;5004295;28;19942;-70
2023/03/08 05:46:59;;;;;;;;;;;0.30;99.90;;;;;;4982606;28;19989;-69
2023/03/08 05:49:27;;;;;;;;;;;0.30;99.90;;;;;;4959970;28;20010;-68
2023/03/08 05:51:54;;;;;;;;;;;0.30;99.90;;;;;;4952674;28;19998;-69
2023/03/08 05:54:21;;;;;;;;;;;0.30;99.90;;;;;;4987770;28;20011;-70
2023/03/08 05:56:47;;;;;;;;;;;0.30;99.90;;;;;;4964076;28;19933;-70
2023/03/08 05:59:14;;;;;;;;;;;0.30;99.90;;;;;;4967968;28;19932;-71
2023/03/08 06:01:41;;;;;;;;;;;0.30;99.90;;;;;;4976623;28;20017;-70
2023/03/08 06:04:07;;;;;;;;;;;0.30;99.90;;;;;;5002290;28;20375;-70
2023/03/08 06:06:35;;;;;;;;;;;0.20;99.90;;;;;;4984951;28;19969;-70
2023/03/08 06:09:03;;;;;;;;;;;0.30;99.90;;;;;;5008236;28;19925;-70
2023/03/08 06:11:29;;;;;;;;;;;0.30;99.90;;;;;;5011040;28;19992;-69
2023/03/08 06:13:56;;;;;;;;;;;0.30;99.90;;;;;;4979538;28;19926;-70
2023/03/08 06:16:23;;;;;;;;;;;0.30;99.90;;;;;;4980868;28;20010;-70
2023/03/08 06:18:49;;;;;;;;;;;0.30;99.90;;;;;;5011972;28;19931;-69
2023/03/08 06:21:17;;;;;;;;;;;0.30;99.90;;;;;;5019736;28;19933;-69
2023/03/08 06:23:45;;;;;;;;;;;0.30;99.90;;;;;;4972915;28;19926;-70
2023/03/08 06:26:12;;;;;;;;;;;0.30;99.90;;;;;;4957723;28;19934;-69
2023/03/08 06:28:39;;;;;;;;;;;0.30;99.90;;;;;;4958554;28;20013;-68
2023/03/08 06:31:06;;;;;;;;;;;0.30;99.90;;;;;;4957321;28;20012;-69
2023/03/08 06:33:33;;;;;;;;;;;0.30;99.90;;;;;;4967638;28;20013;-71
2023/03/08 06:36:00;;;;;;;;;;;0.30;99.90;;;;;;4959814;28;20691;-69
2023/03/08 06:38:28;;;;;;;;;;;0.20;99.90;;;;;;4957111;28;19932;-69
2023/03/08 06:40:56;;;;;;;;;;;0.20;99.90;;;;;;4963918;28;20309;-71
2023/03/08 06:43:23;;;;;;;;;;;0.30;99.90;;;;;;4960243;28;19933;-69
2023/03/08 06:45:50;;;;;;;;;;;0.20;99.90;;;;;;4959972;28;19930;-69
2023/03/08 06:48:17;;;;;;;;;;;0.20;99.90;;;;;;4958854;28;19927;-68
2023/03/08 06:50:43;;;;;;;;;;;0.20;99.90;;;;;;4964915;28;19941;-69
2023/03/08 06:53:10;;;;;;;;;;;0.20;99.90;;;;;;4958452;28;20388;-68
2023/03/08 06:55:38;;;;;;;;;;;0.20;99.90;;;;;;4954222;28;20016;-69
2023/03/08 06:58:06;;;;;;;;;;;0.20;99.90;;;;;;4954538;28;20369;-69
2023/03/08 07:00:33;;;;;;;;;;;0.20;99.90;;;;;;4963852;28;19930;-69
2023/03/08 07:03:00;;;;;;;;;;;0.20;99.90;;;;;;4962553;28;19932;-70
2023/03/08 07:05:27;;;;;;;;;;;0.10;99.90;;;;;;4957069;28;20027;-71
2023/03/08 07:07:53;;;;;;;;;;;0.20;99.90;;;;;;4952437;28;20010;-68
2023/03/08 07:10:21;;;;;;;;;;;0.20;99.90;;;;;;4964677;28;20419;-69
2023/03/08 07:12:50;;;;;;;;;;;0.20;99.90;;;;;;4959463;28;20017;-72
2023/03/08 07:15:19;;;;;;;;;;;0.20;99.90;;;;;;4988939;28;19986;-68
2023/03/08 07:17:46;;;;;;;;;;;0.20;99.90;;;;;;4983005;28;19934;-67
2023/03/08 07:20:13;;;;;;;;;;;0.20;99.90;;;;;;4961718;28;19930;-67
2023/03/08 07:22:42;;;;;;;;;;;0.20;99.90;;;;;;4963237;28;19933;-69
2023/03/08 07:25:10;;;;;;;;;;;0.20;99.90;;;;;;4962767;28;19931;-69
2023/03/08 07:27:37;;;;;;;;;;;0.20;99.90;;;;;;5011900;28;19971;-67
2023/03/08 07:30:04;;;;;;;;;;;0.20;99.90;;;;;;4984387;28;20029;-69
2023/03/08 07:32:32;;;;;;;;;;;0.20;99.90;;;;;;4982358;28;19925;-67
2023/03/08 07:34:59;;;;;;;;;;;0.20;99.90;;;;;;4995862;28;19983;-67
2023/03/08 07:37:25;;;;;;;;;;;0.20;99.90;;;;;;4996692;28;20402;-66
2023/03/08 07:39:52;;;;;;;;;;;0.20;99.90;;;;;;5004608;28;19935;-69
2023/03/08 07:42:19;;;;;;;;;;;0.20;99.90;;;;;;4980907;28;20404;-67
2023/03/08 07:44:46;;;;;;;;;;;0.20;99.90;;;;;;4984540;28;19926;-67
2023/03/08 07:47:12;;;;;;;;;;;0.20;99.90;;;;;;4966740;28;20047;-67
2023/03/08 07:49:40;;;;;;;;;;;0.20;99.90;;;;;;4973646;28;19933;-68
2023/03/08 07:52:07;;;;;;;;;;;0.20;99.90;;;;;;4972060;28;20030;-68
2023/03/08 07:54:33;;;;;;;;;;;0.30;99.90;;;;;;4964386;28;19926;-67
2023/03/08 07:57:00;;;;;;;;;;;0.30;99.90;;;;;;4958522;28;20033;-67
2023/03/08 07:59:27;;;;;;;;;;;0.20;99.90;;;;;;4957303;28;20116;-66
2023/03/08 08:01:54;;;;;;;;;;;0.20;99.90;;;;;;4954836;28;20032;-68
2023/03/08 08:04:21;;;;;;;;;;;0.30;99.90;;;;;;4956160;28;19944;-67
2023/03/08 08:06:50;;;;;;;;;;;0.30;99.90;;;;;;4955939;28;19927;-68
2023/03/08 08:09:17;;;;;;;;;;;0.30;99.90;;;;;;4958952;28;20020;-68
2023/03/08 08:11:44;;;;;;;;;;;0.30;99.90;;;;;;4961954;28;19938;-68
2023/03/08 08:14:10;;;;;;;;;;;0.30;99.90;;;;;;4956425;28;19945;-67
2023/03/08 08:16:37;;;;;;;;;;;0.30;99.90;;;;;;4959473;28;19927;-67
2023/03/08 08:19:04;;;;;;;;;;;0.30;99.90;;;;;;4962146;28;19927;-68
2023/03/08 08:21:30;;;;;;;;;;;0.30;99.90;;;;;;4958645;28;20030;-68
2023/03/08 08:24:00;;;;;;;;;;;0.40;99.90;;;;;;4968761;28;19926;-68
2023/03/08 08:26:27;;;;;;;;;;;0.40;99.90;;;;;;4961991;28;19972;-68
2023/03/08 08:28:54;;;;;;;;;;;0.30;99.90;;;;;;4959121;28;19937;-68
2023/03/08 08:31:21;;;;;;;;;;;0.30;99.90;;;;;;4960816;28;19966;-68
2023/03/08 08:33:48;;;;;;;;;;;0.40;99.90;;;;;;4958367;28;19933;-69
2023/03/08 08:36:16;;;;;;;;;;;0.30;99.90;;;;;;4966325;28;19980;-67
2023/03/08 08:38:44;;;;;;;;;;;0.30;99.90;;;;;;4967633;28;20317;-67
2023/03/08 08:41:14;;;;;;;;;;;0.30;99.90;;;;;;4962178;28;19926;-67
2023/03/08 08:43:41;;;;;;;;;;;0.30;99.90;;;;;;4958608;28;19949;-68
2023/03/08 08:46:08;;;;;;;;;;;0.30;99.90;;;;;;4963957;28;19930;-65
2023/03/08 08:48:36;;;;;;;;;;;0.30;99.90;;;;;;4958094;28;19933;-66
2023/03/08 08:51:04;;;;;;;;;;;0.40;99.90;;;;;;4965346;28;19935;-66
2023/03/08 08:53:32;;;;;;;;;;;0.40;99.90;;;;;;4958091;28;19983;-65
2023/03/08 08:55:59;;;;;;;;;;;0.40;99.90;;;;;;4961545;28;19942;-66
2023/03/08 08:58:27;;;;;;;;;;;0.40;99.90;;;;;;4962307;28;20017;-65
2023/03/08 09:00:54;;;;;;;;;;;0.40;99.90;;;;;;4965416;28;20308;-67
2023/03/08 09:03:23;;;;;;;;;;;0.40;99.90;;;;;;4960400;28;19930;-66
2023/03/08 09:05:50;;;;;;;;;;;0.50;99.90;;;;;;4957001;28;19931;-67
2023/03/08 09:08:17;;;;;;;;;;;0.40;99.90;;;;;;4962020;28;19932;-69
2023/03/08 09:10:43;;;;;;;;;;;0.40;99.90;;;;;;4956786;28;20029;-67
2023/03/08 09:13:11;;;;;;;;;;;0.50;99.90;;;;;;4965576;28;20040;-66
2023/03/08 09:15:39;;;;;;;;;;;0.50;99.90;;;;;;4953019;28;20005;-68
2023/03/08 09:18:06;;;;;;;;;;;0.50;99.90;;;;;;4963946;28;20005;-66
2023/03/08 09:20:32;;;;;;;;;;;0.50;99.90;;;;;;4961534;28;20389;-66
2023/03/08 09:22:59;;;;;;;;;;;0.50;99.90;;;;;;4964094;28;20403;-68
2023/03/08 09:25:26;;;;;;;;;;;0.50;99.90;;;;;;4953544;28;20361;-66
2023/03/08 09:27:52;;;;;;;;;;;0.50;99.90;;;;;;4963380;28;19930;-66
2023/03/08 09:30:19;;;;;;;;;;;0.50;99.90;;;;;;4954566;28;20009;-65
2023/03/08 09:32:47;;;;;;;;;;;0.60;99.90;;;;;;4966494;28;19948;-65
2023/03/08 09:35:15;;;;;;;;;;;0.60;99.90;;;;;;4960003;28;20073;-66
2023/03/08 09:37:41;;;;;;;;;;;0.70;99.90;;;;;;4958703;28;19969;-65
2023/03/08 09:40:13;;;;;;;;;;;0.70;99.90;;;;;;4957743;28;19980;-64
2023/03/08 09:42:40;;;;;;;;;;;0.60;99.90;;;;;;4957084;28;20013;-63
2023/03/08 09:45:09;;;;;;;;;;;0.80;99.90;;;;;;4967647;28;19927;-65
2023/03/08 09:47:39;;;;;;;;;;;0.80;99.90;;;;;;4962574;28;19980;-67
2023/03/08 09:50:15;;;;;;;;;;;0.80;99.90;;;;;;4957983;28;20440;-65
2023/03/08 09:52:43;;;;;;;;;;;0.90;99.90;;;;;;4958218;28;19938;-67
2023/03/08 09:55:14;;;;;;;;;;;0.90;99.90;;;;;;4964554;28;21724;-64
2023/03/08 09:57:43;;;;;;;;;;;0.90;99.90;;;;;;4955216;28;20389;-66
2023/03/08 10:00:18;;;;;;;;;;;1.00;99.90;;;;;;4957367;28;20006;-65
2023/03/08 10:02:48;;;;;;;;;;;0.90;99.90;;;;;;4955883;28;19980;-65
2023/03/08 10:05:21;;;;;;;;;;;1.00;99.90;;;;;;4961629;28;20536;-65
2023/03/08 10:07:51;;;;;;;;;;;1.00;99.90;;;;;;4959348;28;19934;-66
2023/03/08 10:10:29;;;;;;;;;;;1.10;99.90;;;;;;4966972;28;20009;-65
2023/03/08 10:13:02;;;;;;;;;;;1.20;99.90;;;;;;4953200;28;19934;-65
2023/03/08 10:15:30;;;;;;;;;;;1.10;99.90;;;;;;4959806;28;20665;-64
2023/03/08 10:17:59;;;;;;;;;;;1.20;99.90;;;;;;4960789;28;19933;-65
2023/03/08 10:20:28;;;;;;;;;;;1.20;99.90;;;;;;4955867;28;20463;-65
2023/03/08 10:22:57;;;;;;;;;;;1.40;99.90;;;;;;4964039;28;19930;-66
2023/03/08 10:25:25;;;;;;;;;;;1.40;99.90;;;;;;4957572;28;19972;-65
2023/03/08 10:27:54;;;;;;;;;;;1.40;99.90;;;;;;4962470;28;19941;-65
2023/03/08 10:30:21;;;;;;;;;;;1.40;99.90;;;;;;4960388;28;19934;-66
2023/03/08 10:32:49;;;;;;;;;;;1.40;99.90;;;;;;4960501;28;20300;-65
2023/03/08 10:35:17;;;;;;;;;;;1.50;99.90;;;;;;4957806;28;19934;-65
2023/03/08 10:37:49;;;;;;;;;;;1.50;99.90;;;;;;4952324;28;19952;-66
2023/03/08 10:40:19;;;;;;;;;;;1.60;99.90;;;;;;4962422;28;19926;-67
2023/03/08 10:42:49;;;;;;;;;;;1.60;99.90;;;;;;4957341;28;19930;-64
2023/03/08 10:45:19;;;;;;;;;;;1.60;99.90;;;;;;4960351;28;19948;-64
2023/03/08 10:47:53;;;;;;;;;;;1.70;99.90;;;;;;4964613;28;19961;-64
2023/03/08 10:50:21;;;;;;;;;;;1.70;99.90;;;;;;4962042;28;19926;-64
2023/03/08 10:52:50;;;;;;;;;;;1.60;99.90;;;;;;4961835;28;20381;-65
2023/03/08 10:55:18;;;;;;;;;;;1.60;99.90;;;;;;4960811;28;20407;-64
2023/03/08 10:57:49;;;;;;;;;;;1.60;99.90;;;;;;4966916;28;19926;-65
2023/03/08 11:00:40;;;;;;;;;;;1.60;99.90;;;;;;4960634;28;19935;-65
2023/03/08 11:03:16;;;;;;;;;;;1.60;99.90;;;;;;4962069;28;20360;-63
2023/03/08 11:05:53;;;;;;;;;;;1.70;99.90;;;;;;4964530;28;19940;-66
2023/03/08 11:08:22;;;;;;;;;;;1.70;99.90;;;;;;4962773;28;19931;-66
2023/03/08 11:10:59;;;;;;;;;;;1.60;99.90;;;;;;4967528;28;20337;-66
2023/03/08 11:13:28;;;;;;;;;;;1.70;99.90;;;;;;4968234;28;19944;-65
2023/03/08 11:15:58;;;;;;;;;;;1.70;99.90;;;;;;4963067;28;19930;-67
2023/03/08 11:18:29;;;;;;;;;;;1.70;99.90;;;;;;4963794;28;19938;-66
2023/03/08 11:20:57;;;;;;;;;;;1.70;99.90;;;;;;4970080;28;19961;-66
2023/03/08 11:23:30;;;;;;;;;;;1.80;99.90;;;;;;4957564;28;19992;-66
2023/03/08 11:26:01;;;;;;;;;;;1.80;99.90;;;;;;4953841;28;20978;-65
2023/03/08 11:28:38;;;;;;;;;;;1.90;99.90;;;;;;4963340;28;19926;-64
2023/03/08 11:31:13;;;;;;;;;;;1.80;99.90;;;;;;4961672;28;20450;-66
2023/03/08 11:34:03;;;;;;;;;;;2.00;99.90;;;;;;4958372;28;19956;-66
2023/03/08 11:36:32;;;;;;;;;;;1.90;99.90;;;;;;4955257;28;20368;-67
2023/03/08 11:39:04;;;;;;;;;;;1.80;99.90;;;;;;4965172;28;19938;-66
2023/03/08 11:41:34;;;;;;;;;;;1.90;99.90;;;;;;4959637;28;19976;-65
2023/03/08 11:44:17;;;;;;;;;;;1.90;99.90;;;;;;4956611;28;19930;-66
2023/03/08 11:46:49;;;;;;;;;;;1.90;99.90;;;;;;4965179;28;19973;-66
2023/03/08 11:49:26;;;;;;;;;;;2.00;99.90;;;;;;4957377;28;20018;-66
2023/03/08 11:51:56;;;;;;;;;;;1.90;99.90;;;;;;4954364;28;19936;-67
2023/03/08 11:54:36;;;;;;;;;;;1.90;99.90;;;;;;4957672;28;19980;-65
2023/03/08 11:57:04;;;;;;;;;;;1.90;99.90;;;;;;4961587;28;19954;-66
2023/03/08 11:59:33;;;;;;;;;;;1.90;99.90;;;;;;4957503;28;20911;-66
2023/03/08 12:02:02;;;;;;;;;;;1.90;99.90;;;;;;4955550;28;20385;-66
2023/03/08 12:04:32;;;;;;;;;;;2.10;99.90;;;;;;4962584;28;19933;-67
2023/03/08 12:07:01;;;;;;;;;;;2.10;99.90;;;;;;4960562;28;20008;-66
2023/03/08 12:09:31;;;;;;;;;;;2.10;99.90;;;;;;4955426;28;19926;-66
2023/03/08 12:12:00;;;;;;;;;;;2.10;99.90;;;;;;4959143;28;20433;-65
2023/03/08 12:14:30;;;;;;;;;;;2.00;99.90;;;;;;4953650;28;19941;-66
2023/03/08 12:17:02;;;;;;;;;;;2.10;99.90;;;;;;4960422;28;20439;-67
2023/03/08 12:19:32;;;;;;;;;;;2.10;99.90;;;;;;4953980;28;20323;-66
2023/03/08 12:22:03;;;;;;;;;;;2.10;99.90;;;;;;4955808;28;19941;-65
2023/03/08 12:24:41;;;;;;;;;;;2.20;99.90;;;;;;4957718;28;20385;-66
2023/03/08 12:27:09;;;;;;;;;;;2.20;99.90;;;;;;4962038;28;19926;-67
2023/03/08 12:29:38;;;;;;;;;;;2.20;99.90;;;;;;4951283;28;20316;-66
2023/03/08 12:32:05;;;;;;;;;;;2.20;99.90;;;;;;4957864;28;20316;-68
2023/03/08 12:34:37;;;;;;;;;;;2.20;99.90;;;;;;4960660;28;19988;-66
2023/03/08 12:37:04;;;;;;;;;;;2.10;99.90;;;;;;4960560;28;20480;-67
2023/03/08 12:39:32;;;;;;;;;;;2.10;99.90;;;;;;4959660;28;19934;-66
2023/03/08 12:42:01;;;;;;;;;;;2.10;99.90;;;;;;4962653;28;20018;-66
2023/03/08 12:44:29;;;;;;;;;;;2.20;99.90;;;;;;4965494;28;19927;-65
2023/03/08 12:46:57;;;;;;;;;;;2.20;99.90;;;;;;4958383;28;20082;-66
2023/03/08 12:49:27;;;;;;;;;;;2.20;99.90;;;;;;4954831;28;20009;-66
2023/03/08 12:52:01;;;;;;;;;;;2.20;99.90;;;;;;4956105;28;20393;-66
2023/03/08 12:54:31;;;;;;;;;;;2.20;99.90;;;;;;4958892;28;20005;-66
2023/03/08 12:56:58;;;;;;;;;;;2.10;99.90;;;;;;4963201;28;20053;-66
2023/03/08 12:59:32;;;;;;;;;;;2.10;99.90;;;;;;4958283;28;20001;-65
2023/03/08 13:02:00;;;;;;;;;;;2.20;99.90;;;;;;4961244;28;20021;-66
2023/03/08 13:04:28;;;;;;;;;;;2.20;99.90;;;;;;4962297;28;19926;-65
2023/03/08 13:07:14;;;;;;;;;;;2.20;99.90;;;;;;4962697;28;19930;-66
2023/03/08 13:09:45;;;;;;;;;;;2.20;99.90;;;;;;4962008;28;19930;-66
2023/03/08 13:12:18;;;;;;;;;;;2.20;99.90;;;;;;4954950;28;19930;-65
2023/03/08 13:14:58;;;;;;;;;;;2.20;99.90;;;;;;4960226;28;20358;-67
2023/03/08 13:17:36;;;;;;;;;;;2.30;99.90;;;;;;4964798;28;20025;-66
2023/03/08 13:20:10;;;;;;;;;;;2.20;99.90;;;;;;4955636;28;20016;-66
2023/03/08 13:22:40;;;;;;;;;;;2.20;99.90;;;;;;4961674;28;19934;-66
2023/03/08 13:25:09;;;;;;;;;;;2.20;99.90;;;;;;4960937;28;20017;-68
2023/03/08 13:27:39;;;;;;;;;;;2.20;99.90;;;;;;4958573;28;19933;-66
2023/03/08 13:30:17;;;;;;;;;;;2.20;99.90;;;;;;4953170;28;19932;-66
2023/03/08 13:32:44;;;;;;;;;;;2.20;99.90;;;;;;4955864;28;19926;-67
2023/03/08 13:35:14;;;;;;;;;;;2.20;99.90;;;;;;4958650;28;19988;-66
2023/03/08 13:37:40;;;;;;;;;;;2.20;99.90;;;;;;4962049;28;19965;-65
2023/03/08 13:40:15;;;;;;;;;;;2.20;99.90;;;;;;4963028;28;20008;-67
2023/03/08 13:42:52;;;;;;;;;;;2.30;99.90;;;;;;4955165;28;19926;-66
2023/03/08 13:45:20;;;;;;;;;;;2.20;99.90;;;;;;4959551;28;19926;-66
2023/03/08 13:47:47;;;;;;;;;;;2.20;99.90;;;;;;4961808;28;19936;-66
2023/03/08 13:50:17;;;;;;;;;;;2.10;99.90;;;;;;4957783;28;19949;-65
2023/03/08 13:52:44;;;;;;;;;;;2.10;99.90;;;;;;4956160;28;19926;-65
2023/03/08 13:55:14;;;;;;;;;;;2.20;99.90;;;;;;4953126;28;19938;-65
2023/03/08 13:57:41;;;;;;;;;;;2.20;99.90;;;;;;4957177;28;19953;-66
2023/03/08 14:00:21;;;;;;;;;;;2.10;99.90;;;;;;4959888;28;20013;-65
2023/03/08 14:02:49;;;;;;;;;;;2.10;99.90;;;;;;4955614;28;19973;-65
2023/03/08 14:05:17;;;;;;;;;;;2.10;99.90;;;;;;4953213;28;20686;-65
2023/03/08 14:07:43;;;;;;;;;;;2.10;99.90;;;;;;4953024;28;19934;-65
2023/03/08 14:10:13;;;;;;;;;;;2.10;99.90;;;;;;4956704;28;20322;-65
2023/03/08 14:12:40;;;;;;;;;;;2.20;99.90;;;;;;4957613;28;19945;-65
2023/03/08 14:15:07;;;;;;;;;;;2.10;99.90;;;;;;4962280;28;19971;-66
2023/03/08 14:17:35;;;;;;;;;;;2.00;99.90;;;;;;4956995;28;19953;-65
2023/03/08 14:20:05;;;;;;;;;;;2.00;99.90;;;;;;4962944;28;19930;-65
2023/03/08 14:22:34;;;;;;;;;;;2.00;99.90;;;;;;4962376;28;20447;-66
2023/03/08 14:25:01;;;;;;;;;;;2.10;99.90;;;;;;4960742;28;20430;-66
2023/03/08 14:27:32;;;;;;;;;;;2.10;99.90;;;;;;4957454;28;19938;-67
2023/03/08 14:30:01;;;;;;;;;;;2.00;99.90;;;;;;4960843;28;19927;-66
2023/03/08 14:32:30;;;;;;;;;;;2.00;99.90;;;;;;4953692;28;20384;-66
2023/03/08 14:35:05;;;;;;;;;;;2.00;99.90;;;;;;4961757;28;19963;-66
2023/03/08 14:37:33;;;;;;;;;;;2.00;99.90;;;;;;4964615;28;19932;-66
2023/03/08 14:40:18;;;;;;;;;;;2.00;99.90;;;;;;4964638;28;19930;-66